Meteo Giornale » Osservazioni meteo Slovacchia » Bratislava Ivanka

ore: 06:30 - Osservazioni Meteo Bratislava Ivanka
Lat. 48° 12' N Lon. 17° 12' E Alt. 133 metri s.l.m.

sereno Europe/Bratislava

22 °C

Sereno

Temp. 24 Ore

21 °C

32 °C

Nord-Est

11.1 Km/h

Dew point 18 °C

Umidità 78 %

Visibilità  10 Km

Il sole sorge alle ore 04:48

Il sole tramonta alle ore 20:57

Data e Ora Cielo e Fenomeni T °C DP °C Um. % Pres. hPa Vis. km Vento km/h
Oggi h: 06:30 sereno Sereno 22 18 78 1008 10 NE 11.1
Oggi h: 06:00 sereno Sereno 21 18 82 1008 10 NE 9.3
Oggi h: 05:30 sereno Sereno 21 18 82 1008 10 NE 9.3
Oggi h: 05:00 sereno Sereno 21 18 82 1008 10 N/NE 11.1
Oggi h: 04:30 sereno Sereno 21 18 82 1008 10 NE 11.1
Oggi h: 04:00 sereno Sereno 21 18 82 1008 10 NE 9.3
Oggi h: 03:30 sereno Sereno 21 18 82 1008 10 NE 9.3
Oggi h: 03:00 sereno Sereno 21 18 82 1008 10 N/NE 9.3
Oggi h: 02:30 sereno Sereno 21 18 82 1008 10 N/NE 13
Oggi h: 02:00 sereno Sereno 21 18 82 1009 10 N/NE 11.1
Oggi h: 01:30 sereno Sereno 21 18 82 1009 10 NE 11.1
Oggi h: 01:00 sereno Sereno 22 18 78 1009 10 N 7.4
Oggi h: 00:30 sereno Sereno 23 18 73 1009 10 N 9.3
Oggi h: 00:00 sereno Sereno 23 18 73 1009 10 NE 9.3
Ieri h: 23:30 sereno Sereno 24 18 69 1009 10 N 5.5
Ieri h: 23:00 sereno Sereno 25 18 65 1010 10 N 3.7
Ieri h: 22:30 sereno Sereno 25 19 69 1010 10 SE 9.3
Ieri h: 22:00 sereno Sereno 26 19 65 1010 10 E/SE 9.3
Ieri h: 21:30 sereno Sereno 26 19 65 1010 10 E 9.3
Ieri h: 21:00 sereno Sereno 27 19 61 1010 10 E/SE 9.3
Ieri h: 20:30 sereno Sereno 28 19 58 1009 10 E/SE 11.1
Ieri h: 20:00 sereno Sereno 29 19 54 1009 10 E/SE 11.1
Ieri h: 19:30 sereno Sereno 30 18 48 1009 10 SE 11.1
Ieri h: 19:00 sereno Sereno 31 18 45 1009 10 SE 11.1
Ieri h: 18:30 sereno Sereno 31 17 43 1009 10 SE 9.3
Ieri h: 18:00 sereno Sereno 31 17 43 1010 10 SE 11.1
Ieri h: 17:30 sereno Sereno 31 17 43 1010 10 SE 13
Ieri h: 17:00 sereno Sereno 31 16 40 1010 10 S/SE 11.1
Ieri h: 16:30 sereno Sereno 32 16 38 1010 10 SE 13
Ieri h: 16:00 sereno Sereno 32 18 43 1010 10 E 13
Ieri h: 15:30 sereno Sereno 32 18 43 1011 10 E 18.5
Ieri h: 15:00 sereno Sereno 32 17 40 1011 10 E 16.7
Ieri h: 14:30 sereno Sereno 32 16 38 1011 10 S/SE 13
Ieri h: 14:00 sereno Sereno 32 14 33 1011 10 SE 11.1
Ieri h: 13:30 sereno Sereno 32 17 40 1011 10 SE 11.1
Ieri h: 13:00 sereno Sereno 31 17 43 1012 10 N 13
Ieri h: 12:30 sereno Sereno 30 17 45 1012 10 SE 11.1
Ieri h: 12:00 sereno Sereno 30 16 42 1012 10 S 9.3
Ieri h: 11:30 sereno Sereno 29 18 51 1012 10 E 9.3
Ieri h: 11:00 sereno Sereno 28 17 51 1013 10 E 9.3
Ieri h: 10:30 sereno Sereno 28 17 51 1013 10 E 9.3
Ieri h: 10:00 sereno Sereno 26 17 57 1013 10 E/NE 11.1
Ieri h: 09:30 sereno Sereno 26 18 61 1013 10 E/NE 11.1
Ieri h: 09:00 sereno Sereno 25 17 61 1013 10 E/NE 11.1
Ieri h: 08:30 sereno Sereno 24 17 64 1013 10 E 14.8
Ieri h: 08:00 sereno Sereno 24 17 64 1014 10 E/NE 11.1